Aviation Digital Data Service (ADDS)

Output produced by METARs form (2039 UTC 27 September 2016)
found at http://aviationweather.gov/adds/metars/
 
KLYH 271733Z 2718/2818 18007KT P6SM BKN040 
     FM280100 VRB03KT P6SM BKN060 
     FM280800 VRB03KT P6SM OVC003 
     FM281400 VRB03KT P6SM OVC012